Time;durP1;ratioP1;P1;durP2;ratioP2;P2;SDS_P1;SDS_P2;PMS_P1;PMS_P2;Temp;Humidity;BMP_temperature;BMP_pressure;BME280_temperature;BME280_humidity;BME280_pressure;Samples;Min_cycle;Max_cycle;Signal;HPM_P1;HPM_P2
2022/09/03 00:00:38;;;;;;;2.75;2.50;;;;;;;16.64;50.05;101217.50;4991255;28;20587;-79
2022/09/03 00:03:30;;;;;;;4.35;2.90;;;;;;;16.60;49.83;101218.88;4991476;28;20047;-79
2022/09/03 00:06:08;;;;;;;3.28;2.40;;;;;;;16.56;51.00;101212.97;4974791;28;20535;-79
2022/09/03 00:09:00;;;;;;;4.18;2.75;;;;;;;16.49;50.17;101211.41;4991215;28;20047;-79
2022/09/03 00:11:32;;;;;;;3.90;2.42;;;;;;;16.45;50.55;101208.16;4990839;28;20914;-79
2022/09/03 00:14:09;;;;;;;5.43;2.58;;;;;;;16.41;50.95;101202.25;4991533;28;20054;-79
2022/09/03 00:17:17;;;;;;;3.25;2.85;;;;;;;16.40;50.27;101208.09;4991063;28;20047;-79
2022/09/03 00:19:55;;;;;;;2.75;2.55;;;;;;;16.37;50.57;101203.69;4932820;29;20590;-79
2022/09/03 00:22:28;;;;;;;8.20;2.55;;;;;;;16.33;50.59;101206.56;4933478;29;20056;-79
2022/09/03 00:24:59;;;;;;;9.02;2.88;;;;;;;16.31;51.14;101211.66;4917419;29;20064;-79
2022/09/03 00:27:27;;;;;;;3.47;2.60;;;;;;;16.27;51.02;101200.38;4932857;29;20603;-79
2022/09/03 00:30:09;;;;;;;5.22;2.65;;;;;;;16.25;51.31;101203.53;4916914;29;20087;-79
2022/09/03 00:33:09;;;;;;;2.92;2.63;;;;;;;16.23;51.06;101203.25;4933283;29;20459;-79
2022/09/03 00:36:14;;;;;;;5.88;2.40;;;;;;;16.20;51.09;101198.06;4933239;29;20112;-80
2022/09/03 00:38:40;;;;;;;2.58;2.47;;;;;;;16.18;51.34;101205.84;4894739;29;20076;-79
2022/09/03 00:41:36;;;;;;;4.40;2.83;;;;;;;16.15;51.25;101196.78;4894355;29;20061;-79
2022/09/03 00:44:44;;;;;;;5.00;2.60;;;;;;;16.10;51.41;101202.81;4894540;29;20052;-79
2022/09/03 00:47:28;;;;;;;2.85;2.45;;;;;;;16.05;51.67;101197.34;4894873;29;20108;-79
2022/09/03 00:50:24;;;;;;;6.63;2.45;;;;;;;16.01;52.04;101200.22;4909080;28;20063;-79
2022/09/03 00:53:09;;;;;;;3.17;2.72;;;;;;;15.98;52.67;101199.22;4932235;29;20064;-79
2022/09/03 00:55:57;;;;;;;3.03;2.70;;;;;;;15.96;52.48;101198.22;4916041;29;20052;-79
2022/09/03 00:58:42;;;;;;;2.80;2.50;;;;;;;15.92;52.29;101192.28;4932951;29;20766;-79
2022/09/03 01:01:39;;;;;;;3.55;2.60;;;;;;;15.88;52.29;101195.16;4932541;29;20060;-79
2022/09/03 01:04:20;;;;;;;5.55;2.60;;;;;;;15.85;53.22;101196.09;4927508;29;20506;-79
2022/09/03 01:07:12;;;;;;;4.53;2.63;;;;;;;15.80;52.80;101187.94;4932662;29;20533;-79
2022/09/03 01:10:15;;;;;;;2.97;2.50;;;;;;;15.75;52.58;101194.72;4922554;29;20064;-79
2022/09/03 01:13:02;;;;;;;4.28;2.97;;;;;;;15.72;52.67;101192.22;4932588;29;20168;-80
2022/09/03 01:15:32;;;;;;;2.75;2.55;;;;;;;15.70;53.30;101197.31;4970560;28;20059;-79
2022/09/03 01:18:07;;;;;;;3.47;2.83;;;;;;;15.67;53.27;101193.59;4970683;28;20074;-79
2022/09/03 01:20:50;;;;;;;3.65;2.70;;;;;;;15.64;53.47;101199.88;4953524;28;20111;-79
2022/09/03 01:23:54;;;;;;;2.97;2.50;;;;;;;15.63;53.21;101195.72;4950512;28;20509;-79
2022/09/03 01:26:52;;;;;;;3.72;2.80;;;;;;;15.60;53.24;101200.06;4950897;28;20135;-78
2022/09/03 01:29:38;;;;;;;7.50;2.55;;;;;;;15.57;54.34;101202.97;4958073;28;20065;-79
2022/09/03 01:32:18;;;;;;;3.38;2.78;;;;;;;15.53;54.03;101202.38;4972277;28;20039;-79
2022/09/03 01:35:00;;;;;;;2.90;2.70;;;;;;;15.50;54.24;101209.41;4972908;28;20039;-79
2022/09/03 01:37:29;;;;;;;7.18;3.00;;;;;;;15.47;54.36;101212.28;4973125;28;20540;-79
2022/09/03 01:40:17;;;;;;;3.00;2.80;;;;;;;15.48;54.26;101203.75;4972297;28;20505;-80
2022/09/03 01:43:02;;;;;;;3.25;3.05;;;;;;;15.47;53.97;101207.63;4973509;28;20047;-79
2022/09/03 01:45:47;;;;;;;3.65;2.65;;;;;;;15.45;54.25;101199.31;4973133;28;20047;-79
2022/09/03 01:48:35;;;;;;;4.00;2.45;;;;;;;15.44;54.27;101205.13;4972221;28;20052;-79
2022/09/03 01:51:16;;;;;;;3.05;2.85;;;;;;;15.45;54.23;101207.38;4971712;28;20051;-79
2022/09/03 01:54:08;;;;;;;2.80;2.65;;;;;;;15.44;53.93;101205.88;4972705;28;20545;-78
2022/09/03 01:57:02;;;;;;;9.32;2.63;;;;;;;15.43;54.17;101211.72;4973079;28;20047;-78
2022/09/03 01:59:41;;;;;;;2.72;2.55;;;;;;;15.42;54.05;101205.59;4972791;28;20062;-78
2022/09/03 02:02:22;;;;;;;2.95;2.75;;;;;;;15.44;54.23;101205.13;4973032;28;20106;-78
2022/09/03 02:05:01;;;;;;;2.55;2.35;;;;;;;15.41;54.26;101204.13;4972950;28;20051;-78
2022/09/03 02:07:33;;;;;;;2.70;2.40;;;;;;;15.39;54.46;101201.16;4971014;28;20055;-78
2022/09/03 02:10:01;;;;;;;2.88;2.67;;;;;;;15.37;54.54;101202.81;4972731;28;20110;-78
2022/09/03 02:12:32;;;;;;;3.92;2.40;;;;;;;15.35;54.79;101205.97;4972679;28;20432;-78
2022/09/03 02:15:02;;;;;;;2.80;2.50;;;;;;;15.31;55.13;101203.44;4972872;28;20461;-78
2022/09/03 02:17:33;;;;;;;3.95;2.78;;;;;;;15.27;54.69;101196.78;4972827;28;20118;-78
2022/09/03 02:20:04;;;;;;;5.68;2.95;;;;;;;15.24;55.11;101192.34;4972770;28;20115;-78
2022/09/03 02:22:32;;;;;;;6.73;2.67;;;;;;;15.21;54.83;101198.63;4971763;28;20048;-78
2022/09/03 02:24:59;;;;;;;2.88;2.67;;;;;;;15.16;55.21;101197.34;4971176;28;20062;-78
2022/09/03 02:27:26;;;;;;;2.78;2.53;;;;;;;15.13;55.50;101200.19;4972433;28;20051;-78
2022/09/03 02:29:52;;;;;;;2.88;2.65;;;;;;;15.10;55.78;101201.13;4972564;28;20524;-79
2022/09/03 02:32:19;;;;;;;3.70;2.90;;;;;;;15.06;55.83;101200.56;4973645;28;20114;-79
2022/09/03 02:34:45;;;;;;;3.45;2.30;;;;;;;15.02;55.96;101204.16;4976165;28;20115;-79
2022/09/03 02:37:17;;;;;;;2.85;2.53;;;;;;;15.01;56.08;101204.59;4975442;28;20110;-79
2022/09/03 02:39:44;;;;;;;;;;;;;;;14.99;55.15;101198.97;4976425;28;20051;-78
2022/09/03 02:42:13;;;;;;;2.63;2.20;;;;;;;14.96;55.61;101207.91;4975943;28;19926;-79
2022/09/03 02:44:52;;;;;;;3.25;2.47;;;;;;;14.95;55.62;101198.38;4975541;28;20059;-78
2022/09/03 02:47:19;;;;;;;2.58;2.42;;;;;;;14.91;56.77;101195.88;4976028;28;20055;-78
2022/09/03 02:49:48;;;;;;;5.13;2.65;;;;;;;14.88;56.26;101201.41;4975586;28;20048;-78
2022/09/03 02:52:15;;;;;;;3.58;2.72;;;;;;;14.85;56.72;101203.06;4975461;28;20055;-78
2022/09/03 02:54:43;;;;;;;2.50;2.40;;;;;;;14.82;56.93;101200.56;4974355;28;20059;-79
2022/09/03 02:57:13;;;;;;;2.47;2.38;;;;;;;14.77;56.75;101193.91;4975391;28;20563;-79
2022/09/03 02:59:40;;;;;;;2.83;2.58;;;;;;;14.76;57.52;101199.72;4975364;28;20106;-79
2022/09/03 03:02:07;;;;;;;2.90;2.72;;;;;;;14.72;56.99;101191.88;4975129;28;20047;-78
2022/09/03 03:04:34;;;;;;;2.70;2.58;;;;;;;14.72;56.92;101194.53;4975393;28;20484;-79
2022/09/03 03:07:00;;;;;;;2.70;2.60;;;;;;;14.70;56.50;101191.56;4974660;28;20063;-79
2022/09/03 03:09:27;;;;;;;3.33;2.85;;;;;;;14.70;56.65;101188.16;4975339;28;20524;-79
2022/09/03 03:11:54;;;;;;;4.18;2.92;;;;;;;14.68;56.76;101189.34;4975490;28;20114;-78
2022/09/03 03:14:21;;;;;;;2.47;2.17;;;;;;;14.68;56.71;101191.28;4973830;28;20054;-79
2022/09/03 03:16:49;;;;;;;7.63;2.67;;;;;;;14.67;56.67;101195.91;4974345;28;20043;-79
2022/09/03 03:19:16;;;;;;;3.53;2.55;;;;;;;14.67;56.53;101189.81;4975504;28;20058;-79
2022/09/03 03:21:43;;;;;;;2.70;2.50;;;;;;;14.66;57.46;101186.38;4974756;28;20043;-79
2022/09/03 03:24:09;;;;;;;5.13;2.70;;;;;;;14.66;56.63;101182.97;4975272;28;20050;-79
2022/09/03 03:26:36;;;;;;;2.92;2.70;;;;;;;14.64;57.20;101177.31;4975064;28;20143;-79
2022/09/03 03:29:03;;;;;;;2.75;2.55;;;;;;;14.63;56.62;101173.16;4975009;28;20051;-79
2022/09/03 03:31:30;;;;;;;12.23;3.00;;;;;;;14.61;56.94;101178.22;4974984;28;20043;-78
2022/09/03 03:33:59;;;;;;;3.30;3.00;;;;;;;14.58;56.84;101171.84;4975041;28;20555;-79
2022/09/03 03:36:29;;;;;;;6.28;2.78;;;;;;;14.57;56.82;101178.41;4974293;28;20563;-79
2022/09/03 03:38:57;;;;;;;2.70;2.58;;;;;;;14.55;57.14;101177.38;4974799;28;20438;-79
2022/09/03 03:41:27;;;;;;;3.33;2.70;;;;;;;14.54;57.07;101175.88;4975021;28;20489;-79
2022/09/03 03:43:58;;;;;;;5.50;2.97;;;;;;;14.54;57.09;101178.56;4974470;28;20103;-78
2022/09/03 03:46:29;;;;;;;7.72;2.65;;;;;;;14.50;57.66;101186.78;4974528;28;20047;-79
2022/09/03 03:48:55;;;;;;;3.23;2.93;;;;;;;14.48;57.27;101180.38;4974483;28;20127;-79
2022/09/03 03:51:22;;;;;;;2.80;2.60;;;;;;;14.48;57.61;101175.03;4974690;28;20776;-79
2022/09/03 03:53:53;;;;;;;3.25;2.95;;;;;;;14.48;57.87;101177.69;4974829;28;20110;-79
2022/09/03 03:56:19;;;;;;;6.97;2.72;;;;;;;14.47;57.57;101181.56;4974872;28;20055;-80
2022/09/03 03:58:47;;;;;;;2.85;2.65;;;;;;;14.46;57.78;101186.19;4974959;28;20102;-79
2022/09/03 04:01:20;;;;;;;5.47;2.58;;;;;;;14.47;57.39;101179.63;4975030;28;20122;-79
2022/09/03 04:03:47;;;;;;;4.22;2.70;;;;;;;14.46;57.73;101190.81;4956943;28;20099;-79
2022/09/03 04:06:17;;;;;;;4.68;2.78;;;;;;;14.46;57.39;101188.88;4974315;28;20122;-80
2022/09/03 04:08:46;;;;;;;3.83;2.70;;;;;;;14.45;57.33;101178.63;4974348;28;20058;-79
2022/09/03 04:11:17;;;;;;;2.92;2.72;;;;;;;14.42;57.46;101177.59;4973392;28;20213;-79
2022/09/03 04:13:45;;;;;;;3.00;2.80;;;;;;;14.44;57.41;101190.53;4974417;28;20106;-79
2022/09/03 04:16:15;;;;;;;4.55;2.58;;;;;;;14.43;57.57;101189.78;4974409;28;20039;-79
2022/09/03 04:18:41;;;;;;;3.10;2.90;;;;;;;14.42;57.37;101190.22;4973516;28;20114;-79
2022/09/03 04:21:09;;;;;;;2.88;2.67;;;;;;;14.40;57.73;101184.56;4974059;28;20308;-78
2022/09/03 04:23:38;;;;;;;6.82;3.10;;;;;;;14.39;57.55;101181.16;4974127;28;20051;-78
2022/09/03 04:26:06;;;;;;;3.58;2.78;;;;;;;14.37;57.66;101180.13;4973926;28;20390;-79
2022/09/03 04:28:33;;;;;;;2.85;2.60;;;;;;;14.34;57.39;101179.09;4973902;28;20047;-79
2022/09/03 04:31:06;;;;;;;4.43;2.90;;;;;;;14.35;57.66;101175.97;4973922;28;20468;-79
2022/09/03 04:33:34;;;;;;;7.72;2.60;;;;;;;14.34;58.25;101182.53;4973675;28;20051;-78
2022/09/03 04:36:11;;;;;;;3.20;2.90;;;;;;;14.34;57.77;101176.44;4973740;28;20564;-78
2022/09/03 04:38:42;;;;;;;3.70;2.92;;;;;;;14.32;57.80;101184.19;4974107;28;20090;-79
2022/09/03 04:41:11;;;;;;;3.10;2.90;;;;;;;14.31;58.04;101169.31;4974210;28;20106;-78
2022/09/03 04:43:41;;;;;;;4.53;2.50;;;;;;;14.29;57.82;101171.69;4973789;28;20051;-78
2022/09/03 04:46:08;;;;;;;2.88;2.50;;;;;;;14.27;58.00;101168.72;4973530;28;20051;-79
2022/09/03 04:48:43;;;;;;;7.32;2.55;;;;;;;14.27;58.01;101180.19;4973430;28;20047;-79
2022/09/03 04:51:12;;;;;;;5.85;2.85;;;;;;;14.27;57.80;101180.19;4973633;28;20051;-78
2022/09/03 04:53:40;;;;;;;4.93;2.70;;;;;;;14.26;58.24;101178.69;4973550;28;20480;-78
2022/09/03 04:56:19;;;;;;;3.75;2.50;;;;;;;14.27;58.04;101188.22;4972231;28;20098;-78
2022/09/03 04:58:46;;;;;;;2.63;2.40;;;;;;;14.25;58.39;101179.88;4973133;28;20051;-78
2022/09/03 05:01:22;;;;;;;2.93;2.73;;;;;;;14.25;58.04;101179.88;4973238;28;20040;-79
2022/09/03 05:03:51;;;;;;;6.72;2.60;;;;;;;14.25;58.25;101179.88;4973346;28;20051;-78
2022/09/03 05:06:18;;;;;;;2.67;2.55;;;;;;;14.27;58.24;101190.16;4973389;28;20522;-78
2022/09/03 05:08:48;;;;;;;5.28;2.65;;;;;;;14.29;58.36;101183.16;4973432;28;20051;-79
2022/09/03 05:11:16;;;;;;;3.90;2.60;;;;;;;14.29;58.46;101191.19;4973677;28;20122;-78
2022/09/03 05:13:45;;;;;;;3.33;2.72;;;;;;;14.30;58.78;101191.91;4973355;28;20039;-79
2022/09/03 05:16:12;;;;;;;2.85;2.65;;;;;;;14.32;59.05;101197.56;4972485;28;20043;-79
2022/09/03 05:18:41;;;;;;;4.15;2.60;;;;;;;14.32;59.03;101202.94;4971779;28;20114;-78
2022/09/03 05:21:10;;;;;;;3.10;2.83;;;;;;;14.31;58.09;101190.72;4972020;28;20073;-79
2022/09/03 05:23:39;;;;;;;6.32;2.88;;;;;;;14.31;58.00;101186.13;4972946;28;20083;-79
2022/09/03 05:26:10;;;;;;;2.63;2.40;;;;;;;14.33;58.01;101183.72;4972889;28;20055;-79
2022/09/03 05:28:39;;;;;;;2.63;2.53;;;;;;;14.35;58.02;101180.59;4973151;28;20106;-79
2022/09/03 05:31:26;;;;;;;6.70;2.70;;;;;;;14.35;57.97;101180.59;4972355;28;20431;-78
2022/09/03 05:33:57;;;;;;;3.17;2.65;;;;;;;14.37;58.53;101182.81;4973232;28;20047;-78
2022/09/03 05:36:28;;;;;;;3.00;2.80;;;;;;;14.37;58.13;101183.56;4973016;28;20485;-78
2022/09/03 05:38:56;;;;;;;3.42;2.63;;;;;;;14.38;58.08;101184.31;4973141;28;20493;-78
2022/09/03 05:41:25;;;;;;;2.53;2.33;;;;;;;14.39;58.02;101175.81;4973588;28;20548;-83
2022/09/03 05:43:57;;;;;;;2.30;2.20;;;;;;;14.45;59.46;101174.00;4972104;28;20055;-79
2022/09/03 05:46:32;;;;;;;3.75;2.60;;;;;;;14.56;60.65;101178.84;4972728;28;20055;-78
2022/09/03 05:49:01;;;;;;;2.40;2.20;;;;;;;14.68;61.28;101184.00;4973284;28;20048;-78
2022/09/03 05:51:28;;;;;;;2.80;2.20;;;;;;;14.97;59.07;101177.97;4972820;28;20073;-78
2022/09/03 05:53:56;;;;;;;7.30;2.70;;;;;;;16.61;54.40;101175.41;4972887;28;20058;-78
2022/09/03 05:56:25;;;;;;;5.65;2.35;;;;;;;17.14;51.93;101185.06;4972943;28;20064;-78
2022/09/03 05:58:54;;;;;;;2.38;2.28;;;;;;;16.66;53.46;101174.78;4972609;28;20102;-78
2022/09/03 06:01:22;;;;;;;2.47;2.28;;;;;;;18.05;50.05;101188.03;4971918;28;20126;-79
2022/09/03 06:04:09;;;;;;;7.25;2.47;;;;;;;19.80;48.09;101183.41;4973028;28;20158;-76
2022/09/03 06:06:38;;;;;;;3.65;2.33;;;;;;;20.71;43.08;101190.81;4972022;28;20216;-75
2022/09/03 06:09:13;;;;;;;2.78;2.58;;;;;;;21.41;42.21;101192.13;4973000;28;20047;-75
2022/09/03 06:11:41;;;;;;;3.20;2.40;;;;;;;21.75;40.63;101191.84;4972777;28;20048;-75
2022/09/03 06:14:10;;;;;;;2.40;2.25;;;;;;;21.69;40.50;101197.31;4972312;28;20070;-76
2022/09/03 06:16:39;;;;;;;8.70;2.35;;;;;;;21.93;40.61;101200.06;4972253;28;20102;-78
2022/09/03 06:19:09;;;;;;;2.65;2.45;;;;;;;22.22;39.33;101201.25;4972324;28;20043;-77
2022/09/03 06:21:38;;;;;;;4.28;2.55;;;;;;;21.71;40.40;101186.69;4972478;28;20051;-80
2022/09/03 06:24:05;;;;;;;2.75;2.50;;;;;;;21.61;40.26;101199.84;4972148;28;20512;-77
2022/09/03 06:26:31;;;;;;;5.30;2.42;;;;;;;21.49;40.97;101190.34;4972288;28;20055;-77
2022/09/03 06:28:59;;;;;;;2.40;2.20;;;;;;;21.33;41.61;101188.50;4971964;28;20051;-79
2022/09/03 06:31:25;;;;;;;8.27;2.22;;;;;;;21.18;42.47;101182.69;4970959;28;20110;-78
2022/09/03 06:33:53;;;;;;;2.85;2.38;;;;;;;20.90;43.05;101186.28;4972313;28;20130;-76
2022/09/03 06:36:21;;;;;;;6.10;2.70;;;;;;;20.45;43.66;101179.59;4972626;28;20506;-76
2022/09/03 06:38:51;;;;;;;2.45;2.30;;;;;;;20.07;44.97;101176.47;4971167;28;20083;-75
2022/09/03 06:41:23;;;;;;;8.30;2.47;;;;;;;19.76;45.21;101191.03;4972493;28;20470;-75
2022/09/03 06:44:11;;;;;;;2.58;2.38;;;;;;;19.53;46.07;101193.00;4971637;28;20054;-75
2022/09/03 06:46:41;;;;;;;2.80;2.28;;;;;;;19.40;46.85;101187.31;4972357;28;20491;-75
2022/09/03 06:49:09;;;;;;;18.48;2.40;;;;;;;19.36;48.12;101189.53;4970864;28;20075;-75
2022/09/03 06:51:37;;;;;;;3.03;2.10;;;;;;;19.37;46.22;101188.28;4970942;28;20043;-75
2022/09/03 06:54:06;;;;;;;2.92;2.30;;;;;;;19.23;46.41;101187.28;4972367;28;20103;-75
2022/09/03 06:56:34;;;;;;;11.07;2.45;;;;;;;19.19;46.60;101194.19;4972047;28;20048;-75
2022/09/03 06:59:10;;;;;;;3.88;2.20;;;;;;;19.13;47.95;101198.81;4971786;28;20425;-77
2022/09/03 07:01:40;;;;;;;4.80;2.10;;;;;;;19.26;47.42;101197.09;4971734;28;20039;-76
2022/09/03 07:04:11;;;;;;;4.50;2.10;;;;;;;19.28;47.02;101193.94;4965860;28;20050;-76
2022/09/03 07:06:39;;;;;;;3.20;2.00;;;;;;;19.31;47.06;101190.25;4960963;28;20055;-76
2022/09/03 07:09:07;;;;;;;4.63;1.90;;;;;;;19.34;46.65;101191.97;4968689;28;20047;-75
2022/09/03 07:11:34;;;;;;;3.35;1.90;;;;;;;19.41;46.78;101193.47;4969924;28;20051;-77
2022/09/03 07:14:03;;;;;;;6.38;2.13;;;;;;;19.47;46.56;101194.19;4971597;28;20047;-76
2022/09/03 07:16:34;;;;;;;4.28;1.77;;;;;;;19.54;46.32;101194.47;4971686;28;20520;-75
2022/09/03 07:19:02;;;;;;;8.48;1.98;;;;;;;19.62;46.01;101200.09;4973561;28;20056;-76
2022/09/03 07:21:32;;;;;;;1.80;1.70;;;;;;;19.68;45.61;101200.09;4975070;28;20048;-75
2022/09/03 07:23:59;;;;;;;10.02;2.10;;;;;;;19.78;45.05;101196.69;4975186;28;20464;-75
2022/09/03 07:26:29;;;;;;;5.13;1.90;;;;;;;19.80;44.92;101191.53;4974399;28;20134;-75
2022/09/03 07:28:56;;;;;;;6.18;2.22;;;;;;;19.91;45.02;101199.63;4973375;28;20098;-74
2022/09/03 07:31:25;;;;;;;3.75;1.90;;;;;;;20.02;45.57;101195.41;4974937;28;20103;-75
2022/09/03 07:33:54;;;;;;;2.30;2.10;;;;;;;20.04;44.30;101199.09;4974771;28;20121;-76
2022/09/03 07:36:22;;;;;;;4.28;1.80;;;;;;;20.16;45.17;101194.41;4974746;28;20051;-76
2022/09/03 07:38:50;;;;;;;3.33;1.90;;;;;;;20.23;44.69;101199.31;4973496;28;20047;-83
2022/09/03 07:41:16;;;;;;;1.75;1.65;;;;;;;20.35;43.87;101195.34;4972947;28;20118;-78
2022/09/03 07:43:54;;;;;;;4.30;1.90;;;;;;;20.43;43.60;101192.88;4973706;28;20056;-78
2022/09/03 07:46:23;;;;;;;5.68;2.05;;;;;;;20.54;43.68;101201.69;4974518;28;20431;-78
2022/09/03 07:48:54;;;;;;;4.63;1.88;;;;;;;20.60;43.21;101201.69;4974574;28;20576;-76
2022/09/03 07:51:25;;;;;;;;;;;;;;;20.74;44.10;101208.00;4975198;28;20047;-77
2022/09/03 07:53:57;;;;;;;5.55;1.80;;;;;;;20.76;43.51;101200.13;4974539;28;19926;-77
2022/09/03 07:56:25;;;;;;;5.13;1.67;;;;;;;20.86;42.85;101206.72;4974250;28;20095;-77
2022/09/03 07:58:54;;;;;;;1.77;1.67;;;;;;;20.94;42.91;101202.25;4973595;28;20051;-76
2022/09/03 08:01:21;;;;;;;2.72;1.98;;;;;;;21.10;43.20;101196.00;4972346;28;20054;-78
2022/09/03 08:03:52;;;;;;;6.35;2.00;;;;;;;21.24;42.15;101194.94;4974158;28;20461;-76
2022/09/03 08:06:21;;;;;;;2.22;2.00;;;;;;;21.33;41.96;101198.59;4974082;28;20066;-77
2022/09/03 08:08:47;;;;;;;2.22;1.77;;;;;;;21.36;41.93;101195.59;4972929;28;20074;-79
2022/09/03 08:11:17;;;;;;;2.03;1.92;;;;;;;21.41;41.96;101200.25;4973861;28;20114;-78
2022/09/03 08:14:02;;;;;;;5.07;1.98;;;;;;;21.51;41.74;101198.69;4974274;28;20492;-78
2022/09/03 08:16:31;;;;;;;2.10;2.00;;;;;;;21.67;41.41;101193.63;4974606;28;20104;-79
2022/09/03 08:18:58;;;;;;;2.58;1.80;;;;;;;21.88;41.63;101200.84;4974036;28;20472;-79
2022/09/03 08:21:25;;;;;;;5.75;1.90;;;;;;;22.05;41.56;101202.66;4973027;28;20047;-79
2022/09/03 08:24:01;;;;;;;5.07;1.88;;;;;;;22.26;40.68;101207.13;4974235;28;20547;-81
2022/09/03 08:26:30;;;;;;;1.80;1.70;;;;;;;22.31;40.83;101211.03;4972099;28;20055;-79
2022/09/03 08:28:57;;;;;;;4.22;1.90;;;;;;;22.45;40.76;101212.59;4973778;28;20044;-79
2022/09/03 08:31:25;;;;;;;5.15;1.80;;;;;;;22.42;39.89;101208.19;4974220;28;20050;-79
2022/09/03 08:33:53;;;;;;;12.43;2.00;;;;;;;22.45;39.99;101214.56;4972669;28;20575;-79
2022/09/03 08:36:24;;;;;;;6.75;1.70;;;;;;;22.56;40.10;101209.00;4974295;28;20050;-79
2022/09/03 08:38:53;;;;;;;2.10;1.90;;;;;;;22.79;39.48;101202.06;4973743;28;20193;-79
2022/09/03 08:41:33;;;;;;;4.00;1.80;;;;;;;22.87;38.75;101208.38;4974346;28;20083;-79
2022/09/03 08:44:22;;;;;;;5.90;2.53;;;;;;;22.95;38.60;101209.28;4974035;28;20043;-79
2022/09/03 08:47:20;;;;;;;4.60;1.80;;;;;;;23.16;38.84;101209.47;4973862;28;20496;-78
2022/09/03 08:49:54;;;;;;;2.45;1.77;;;;;;;23.32;37.73;101202.31;4975784;28;20059;-75
2022/09/03 08:52:37;;;;;;;5.53;2.10;;;;;;;23.47;37.36;101205.28;4973850;28;20051;-75
2022/09/03 08:55:30;;;;;;;2.13;1.92;;;;;;;23.54;37.55;101217.56;4973252;28;20054;-75
2022/09/03 08:58:17;;;;;;;5.78;1.80;;;;;;;23.47;37.52;101208.00;4988500;28;20504;-75
2022/09/03 09:01:05;;;;;;;6.78;1.98;;;;;;;23.44;38.12;101213.75;4973762;28;20421;-75
2022/09/03 09:03:45;;;;;;;4.70;1.88;;;;;;;23.48;37.75;101206.75;4973522;28;20055;-75
2022/09/03 09:06:22;;;;;;;3.38;1.80;;;;;;;23.61;37.21;101208.78;4972993;28;20536;-75
2022/09/03 09:09:02;;;;;;;1.83;1.73;;;;;;;23.70;37.44;101207.66;4973108;28;20583;-75
2022/09/03 09:11:42;;;;;;;2.33;1.60;;;;;;;23.91;37.75;101209.28;4973624;28;20055;-75
2022/09/03 09:14:28;;;;;;;2.97;1.88;;;;;;;24.05;37.88;101207.28;4973504;28;20051;-75
2022/09/03 09:16:58;;;;;;;3.33;2.10;;;;;;;24.21;37.37;101206.25;4987945;28;20382;-74
2022/09/03 09:19:52;;;;;;;2.05;1.70;;;;;;;24.45;37.22;101201.84;4988047;28;20035;-77
2022/09/03 09:22:34;;;;;;;5.25;1.63;;;;;;;24.47;36.29;101204.78;4973203;28;20434;-77
2022/09/03 09:25:03;;;;;;;;;;;;;;;24.66;37.49;101208.09;4973640;28;20094;-78
2022/09/03 09:27:31;;;;;;;4.95;1.83;;;;;;;24.77;36.20;101202.44;4972889;28;19926;-79
2022/09/03 09:30:02;;;;;;;3.15;2.03;;;;;;;24.96;35.96;101202.28;4973024;28;20043;-79
2022/09/03 09:32:30;;;;;;;;;;;;;;;25.06;37.22;101197.13;4973521;28;20054;-79
2022/09/03 09:34:56;;;;;;;3.17;1.65;;;;;;;25.04;35.07;101203.09;4972805;28;19927;-79
2022/09/03 09:37:23;;;;;;;1.88;1.45;;;;;;;25.06;35.37;101197.13;4972466;28;20106;-79
2022/09/03 09:39:58;;;;;;;9.75;1.85;;;;;;;25.15;35.18;101193.94;4973010;28;20047;-79
2022/09/03 09:42:26;;;;;;;5.15;2.05;;;;;;;25.30;35.04;101193.31;4970793;28;20047;-78
2022/09/03 09:44:53;;;;;;;4.13;1.77;;;;;;;25.37;34.64;101206.28;4971388;28;20054;-81
2022/09/03 09:47:30;;;;;;;2.97;1.70;;;;;;;25.44;34.18;101203.63;4973222;28;20062;-75
2022/09/03 09:49:59;;;;;;;2.75;1.63;;;;;;;25.50;33.53;101198.78;4972650;28;20039;-78
2022/09/03 09:52:29;;;;;;;1.60;1.50;;;;;;;25.56;33.53;101199.38;4986370;28;20118;-78
2022/09/03 09:55:14;;;;;;;5.85;1.85;;;;;;;25.62;34.32;101193.03;4971229;28;20058;-78
2022/09/03 09:57:40;;;;;;;7.85;1.90;;;;;;;25.75;33.54;101199.16;4971671;28;20254;-77
2022/09/03 10:00:11;;;;;;;1.85;1.52;;;;;;;25.84;33.69;101193.22;4987409;28;20050;-78
2022/09/03 10:02:45;;;;;;;2.22;1.38;;;;;;;25.91;33.42;101198.00;4971680;28;20524;-76
2022/09/03 10:05:24;;;;;;;6.78;1.40;;;;;;;26.06;33.79;101191.16;4972274;28;20053;-76
2022/09/03 10:08:06;;;;;;;4.47;1.77;;;;;;;26.06;32.84;101191.88;4971747;28;20058;-77
2022/09/03 10:10:41;;;;;;;2.25;1.70;;;;;;;26.05;33.46;101195.88;4972442;28;20547;-76
2022/09/03 10:13:18;;;;;;;3.20;1.73;;;;;;;26.25;33.17;101197.09;4972292;28;20047;-77
2022/09/03 10:15:54;;;;;;;3.08;1.60;;;;;;;26.46;32.08;101191.56;4972422;28;20047;-77
2022/09/03 10:18:44;;;;;;;4.88;1.60;;;;;;;26.50;32.12;101189.94;4972542;28;20575;-76
2022/09/03 10:21:17;;;;;;;1.92;1.60;;;;;;;26.43;31.76;101178.97;4972022;28;20050;-78
2022/09/03 10:23:56;;;;;;;3.83;1.95;;;;;;;26.50;31.85;101181.75;4972495;28;20048;-77
2022/09/03 10:26:32;;;;;;;2.45;1.70;;;;;;;26.56;31.87;101184.31;4972415;28;20043;-78
2022/09/03 10:29:01;;;;;;;6.32;1.20;;;;;;;26.61;32.16;101185.44;4972528;28;20039;-78
2022/09/03 10:32:18;;;;;;;1.75;1.65;;;;;;;26.65;32.42;101177.63;4970845;28;20040;-78
2022/09/03 10:34:57;;;;;;;2.40;1.65;;;;;;;26.68;31.79;101182.00;4971852;28;20563;-78
2022/09/03 10:37:39;;;;;;;4.50;1.55;;;;;;;26.67;32.31;101177.81;4972385;28;20568;-77
2022/09/03 10:40:36;;;;;;;2.03;1.80;;;;;;;26.63;31.96;101175.44;4972333;28;20051;-77
2022/09/03 10:43:22;;;;;;;2.88;1.40;;;;;;;26.72;31.93;101176.91;4972254;28;20106;-76
2022/09/03 10:46:04;;;;;;;6.05;1.52;;;;;;;26.70;31.77;101177.44;4972234;28;20106;-80
2022/09/03 10:48:45;;;;;;;2.00;1.50;;;;;;;26.72;32.16;101172.19;4972089;28;20098;-78
2022/09/03 10:51:30;;;;;;;1.90;1.80;;;;;;;26.74;31.53;101166.91;4971766;28;20535;-77
2022/09/03 10:54:06;;;;;;;1.60;1.52;;;;;;;26.66;32.04;101171.63;4973836;28;20047;-75
2022/09/03 10:56:56;;;;;;;2.67;1.42;;;;;;;26.68;32.30;101171.06;4975471;28;20124;-75
2022/09/03 10:59:39;;;;;;;3.97;1.90;;;;;;;26.72;31.78;101172.19;4975132;28;20958;-75
2022/09/03 11:02:24;;;;;;;4.22;1.88;;;;;;;26.76;31.73;101169.81;4975492;28;20047;-76
2022/09/03 11:05:02;;;;;;;3.80;1.50;;;;;;;26.63;32.14;101167.25;4974989;28;20485;-76
2022/09/03 11:07:44;;;;;;;2.03;1.60;;;;;;;26.75;31.54;101179.28;4975107;28;20051;-76
2022/09/03 11:10:32;;;;;;;5.93;1.73;;;;;;;26.74;31.96;101168.91;4975619;28;20122;-77
2022/09/03 11:13:10;;;;;;;6.40;1.50;;;;;;;26.71;31.48;101170.72;4975532;28;20054;-78
2022/09/03 11:15:55;;;;;;;4.30;1.60;;;;;;;26.76;32.49;101166.38;4975490;28;20051;-76
2022/09/03 11:18:39;;;;;;;4.50;1.50;;;;;;;26.86;32.17;101170.72;4973634;28;20473;-77
2022/09/03 11:21:11;;;;;;;5.20;1.80;;;;;;;26.80;31.83;101161.25;4975046;28;20051;-78
2022/09/03 11:23:46;;;;;;;3.00;1.80;;;;;;;26.81;31.95;101163.44;4975118;28;20051;-76
2022/09/03 11:26:17;;;;;;;1.98;1.73;;;;;;;26.82;31.76;101170.34;4975046;28;20059;-78
2022/09/03 11:29:02;;;;;;;5.40;2.20;;;;;;;26.77;31.90;101167.81;4975226;28;20048;-76
2022/09/03 11:31:56;;;;;;;5.68;1.60;;;;;;;26.80;31.32;101159.25;4974333;28;20067;-73
2022/09/03 11:34:24;;;;;;;2.22;1.63;;;;;;;26.81;31.52;101157.97;4974578;28;20051;-76
2022/09/03 11:37:17;;;;;;;2.33;1.70;;;;;;;26.87;31.70;101155.06;4975042;28;20130;-76
2022/09/03 11:39:52;;;;;;;2.97;1.55;;;;;;;26.79;31.94;101151.63;4974838;28;20051;-75
2022/09/03 11:42:40;;;;;;;6.45;1.90;;;;;;;26.78;31.59;101147.44;4973298;28;20564;-79
2022/09/03 11:45:33;;;;;;;4.00;1.60;;;;;;;26.72;32.13;101142.13;4973083;28;20102;-75
2022/09/03 11:48:00;;;;;;;3.67;1.70;;;;;;;26.72;32.30;101138.69;4974881;28;20476;-75
2022/09/03 11:50:29;;;;;;;1.67;1.50;;;;;;;26.76;32.22;101145.25;4974390;28;20106;-75
2022/09/03 11:53:14;;;;;;;5.03;1.73;;;;;;;26.61;32.08;101139.00;4973676;28;20086;-76
2022/09/03 11:56:11;;;;;;;4.88;1.77;;;;;;;26.48;32.21;101137.88;4974342;28;20079;-76
2022/09/03 11:58:41;;;;;;;1.60;1.50;;;;;;;26.45;31.97;101133.50;4974288;28;20493;-78
2022/09/03 12:01:11;;;;;;;1.90;1.80;;;;;;;26.53;32.14;101139.00;4974156;28;20051;-75